sensor_id;sensor_type;location;lat;lon;timestamp;pressure;altitude;pressure_sealevel;temperature;humidity
15880;BME280;61999;51.514;14.614;2023-03-11T00:00:46;97322.69;;;-4.20;100.00
15880;BME280;61999;51.514;14.614;2023-03-11T00:03:19;97338.44;;;-4.24;100.00
15880;BME280;61999;51.514;14.614;2023-03-11T00:05:51;97347.78;;;-4.23;100.00
15880;BME280;61999;51.514;14.614;2023-03-11T00:08:22;97326.31;;;-4.37;100.00
15880;BME280;61999;51.514;14.614;2023-03-11T00:10:55;97353.69;;;-4.36;100.00
15880;BME280;61999;51.514;14.614;2023-03-11T00:13:25;97331.03;;;-4.43;100.00
15880;BME280;61999;51.514;14.614;2023-03-11T00:15:54;97330.53;;;-4.21;100.00
15880;BME280;61999;51.514;14.614;2023-03-11T00:18:26;97336.09;;;-4.15;100.00
15880;BME280;61999;51.514;14.614;2023-03-11T00:20:58;97340.06;;;-4.23;100.00
15880;BME280;61999;51.514;14.614;2023-03-11T00:23:27;97341.94;;;-4.40;100.00
15880;BME280;61999;51.514;14.614;2023-03-11T00:25:57;97339.56;;;-4.43;100.00
15880;BME280;61999;51.514;14.614;2023-03-11T00:28:25;97337.69;;;-4.26;100.00
15880;BME280;61999;51.514;14.614;2023-03-11T00:30:53;97349.38;;;-4.35;100.00
15880;BME280;61999;51.514;14.614;2023-03-11T00:33:21;97400.19;;;-4.67;100.00
15880;BME280;61999;51.514;14.614;2023-03-11T00:35:49;97396.38;;;-5.49;100.00
15880;BME280;61999;51.514;14.614;2023-03-11T00:38:18;97422.56;;;-5.58;100.00
15880;BME280;61999;51.514;14.614;2023-03-11T00:40:48;97407.06;;;-5.87;100.00
15880;BME280;61999;51.514;14.614;2023-03-11T00:43:17;97391.31;;;-5.81;100.00
15880;BME280;61999;51.514;14.614;2023-03-11T00:45:45;97391.50;;;-6.00;100.00
15880;BME280;61999;51.514;14.614;2023-03-11T00:48:14;97386.72;;;-6.06;100.00
15880;BME280;61999;51.514;14.614;2023-03-11T00:50:43;97401.88;;;-6.66;100.00
15880;BME280;61999;51.514;14.614;2023-03-11T00:53:11;97411.56;;;-6.89;100.00
15880;BME280;61999;51.514;14.614;2023-03-11T00:55:39;97420.09;;;-7.06;100.00
15880;BME280;61999;51.514;14.614;2023-03-11T00:58:07;97409.88;;;-7.06;100.00
15880;BME280;61999;51.514;14.614;2023-03-11T01:00:36;97418.31;;;-7.38;100.00
15880;BME280;61999;51.514;14.614;2023-03-11T01:03:04;97436.84;;;-7.50;100.00
15880;BME280;61999;51.514;14.614;2023-03-11T01:05:33;97433.03;;;-7.61;100.00
15880;BME280;61999;51.514;14.614;2023-03-11T01:08:03;97430.19;;;-7.55;100.00
15880;BME280;61999;51.514;14.614;2023-03-11T01:10:33;97434.09;;;-7.65;100.00
15880;BME280;61999;51.514;14.614;2023-03-11T01:13:02;97429.53;;;-7.41;100.00
15880;BME280;61999;51.514;14.614;2023-03-11T01:15:33;97436.69;;;-7.30;100.00
15880;BME280;61999;51.514;14.614;2023-03-11T01:18:05;97425.38;;;-7.43;100.00
15880;BME280;61999;51.514;14.614;2023-03-11T01:20:33;97429.38;;;-7.55;100.00
15880;BME280;61999;51.514;14.614;2023-03-11T01:23:02;97440.25;;;-7.69;100.00
15880;BME280;61999;51.514;14.614;2023-03-11T01:25:30;97433.59;;;-7.90;100.00
15880;BME280;61999;51.514;14.614;2023-03-11T01:27:58;97429.47;;;-8.12;100.00
15880;BME280;61999;51.514;14.614;2023-03-11T01:30:28;97446.53;;;-8.12;100.00
15880;BME280;61999;51.514;14.614;2023-03-11T01:32:57;97442.44;;;-8.35;100.00
15880;BME280;61999;51.514;14.614;2023-03-11T01:35:29;97435.91;;;-8.22;100.00
15880;BME280;61999;51.514;14.614;2023-03-11T01:37:58;97432.09;;;-8.32;100.00
15880;BME280;61999;51.514;14.614;2023-03-11T01:40:30;97441.31;;;-8.28;100.00
15880;BME280;61999;51.514;14.614;2023-03-11T01:42:59;97444.16;;;-8.17;100.00
15880;BME280;61999;51.514;14.614;2023-03-11T01:45:41;97440.72;;;-8.54;100.00
15880;BME280;61999;51.514;14.614;2023-03-11T01:48:10;97436.72;;;-8.40;100.00
15880;BME280;61999;51.514;14.614;2023-03-11T01:50:44;97445.84;;;-8.35;100.00
15880;BME280;61999;51.514;14.614;2023-03-11T01:53:16;97443.16;;;-8.51;100.00
15880;BME280;61999;51.514;14.614;2023-03-11T01:55:45;97446.41;;;-8.28;100.00
15880;BME280;61999;51.514;14.614;2023-03-11T01:58:18;97455.22;;;-8.35;100.00
15880;BME280;61999;51.514;14.614;2023-03-11T02:00:47;97465.22;;;-8.50;100.00
15880;BME280;61999;51.514;14.614;2023-03-11T02:03:21;97465.25;;;-8.70;100.00
15880;BME280;61999;51.514;14.614;2023-03-11T02:05:56;97475.44;;;-8.50;100.00
15880;BME280;61999;51.514;14.614;2023-03-11T02:08:26;97483.38;;;-8.56;100.00
15880;BME280;61999;51.514;14.614;2023-03-11T02:10:56;97483.00;;;-8.67;100.00
15880;BME280;61999;51.514;14.614;2023-03-11T02:13:24;97481.22;;;-8.46;100.00
15880;BME280;61999;51.514;14.614;2023-03-11T02:15:52;97508.53;;;-8.88;100.00
15880;BME280;61999;51.514;14.614;2023-03-11T02:18:21;97498.72;;;-8.97;100.00
15880;BME280;61999;51.514;14.614;2023-03-11T02:21:03;97504.94;;;-8.83;100.00
15880;BME280;61999;51.514;14.614;2023-03-11T02:23:44;97507.13;;;-8.54;100.00
15880;BME280;61999;51.514;14.614;2023-03-11T02:26:20;97506.66;;;-8.63;100.00
15880;BME280;61999;51.514;14.614;2023-03-11T02:28:52;97523.13;;;-8.50;100.00
15880;BME280;61999;51.514;14.614;2023-03-11T02:31:22;97532.75;;;-8.98;100.00
15880;BME280;61999;51.514;14.614;2023-03-11T02:33:52;97536.38;;;-8.81;100.00
15880;BME280;61999;51.514;14.614;2023-03-11T02:36:36;97545.31;;;-8.71;100.00
15880;BME280;61999;51.514;14.614;2023-03-11T02:39:06;97553.16;;;-8.76;100.00
15880;BME280;61999;51.514;14.614;2023-03-11T02:41:37;97559.97;;;-8.35;100.00
15880;BME280;61999;51.514;14.614;2023-03-11T02:44:10;97546.97;;;-8.70;100.00
15880;BME280;61999;51.514;14.614;2023-03-11T02:46:42;97558.38;;;-8.38;100.00
15880;BME280;61999;51.514;14.614;2023-03-11T02:49:11;97577.97;;;-8.38;100.00
15880;BME280;61999;51.514;14.614;2023-03-11T02:51:39;97575.28;;;-8.35;100.00
15880;BME280;61999;51.514;14.614;2023-03-11T02:54:08;97585.69;;;-8.40;100.00
15880;BME280;61999;51.514;14.614;2023-03-11T02:56:36;97602.63;;;-8.37;100.00
15880;BME280;61999;51.514;14.614;2023-03-11T02:59:04;97605.31;;;-8.61;100.00
15880;BME280;61999;51.514;14.614;2023-03-11T03:01:34;97603.91;;;-8.48;100.00
15880;BME280;61999;51.514;14.614;2023-03-11T03:04:02;97616.69;;;-8.68;100.00
15880;BME280;61999;51.514;14.614;2023-03-11T03:06:30;97623.06;;;-8.58;100.00
15880;BME280;61999;51.514;14.614;2023-03-11T03:08:58;97631.50;;;-8.56;100.00
15880;BME280;61999;51.514;14.614;2023-03-11T03:11:26;97640.41;;;-8.66;100.00
15880;BME280;61999;51.514;14.614;2023-03-11T03:13:54;97649.28;;;-8.54;100.00
15880;BME280;61999;51.514;14.614;2023-03-11T03:16:22;97652.19;;;-8.42;100.00
15880;BME280;61999;51.514;14.614;2023-03-11T03:18:51;97653.47;;;-8.11;100.00
15880;BME280;61999;51.514;14.614;2023-03-11T03:21:19;97647.22;;;-8.45;100.00
15880;BME280;61999;51.514;14.614;2023-03-11T03:23:47;97669.25;;;-8.22;100.00
15880;BME280;61999;51.514;14.614;2023-03-11T03:26:15;97687.19;;;-8.03;100.00
15880;BME280;61999;51.514;14.614;2023-03-11T03:28:43;97696.94;;;-8.75;100.00
15880;BME280;61999;51.514;14.614;2023-03-11T03:31:11;97702.75;;;-8.50;100.00
15880;BME280;61999;51.514;14.614;2023-03-11T03:33:39;97698.97;;;-7.99;100.00
15880;BME280;61999;51.514;14.614;2023-03-11T03:36:12;97710.31;;;-8.26;100.00
15880;BME280;61999;51.514;14.614;2023-03-11T03:38:40;97726.88;;;-8.57;100.00
15880;BME280;61999;51.514;14.614;2023-03-11T03:41:09;97720.09;;;-8.58;100.00
15880;BME280;61999;51.514;14.614;2023-03-11T03:43:37;97743.28;;;-8.62;100.00
15880;BME280;61999;51.514;14.614;2023-03-11T03:46:05;97743.16;;;-8.17;100.00
15880;BME280;61999;51.514;14.614;2023-03-11T03:48:33;97752.38;;;-8.13;100.00
15880;BME280;61999;51.514;14.614;2023-03-11T03:51:03;97764.88;;;-8.71;100.00
15880;BME280;61999;51.514;14.614;2023-03-11T03:53:35;97758.00;;;-8.25;100.00
15880;BME280;61999;51.514;14.614;2023-03-11T03:56:05;97776.03;;;-8.30;100.00
15880;BME280;61999;51.514;14.614;2023-03-11T03:58:33;97774.97;;;-8.24;100.00
15880;BME280;61999;51.514;14.614;2023-03-11T04:01:02;97791.84;;;-8.20;100.00
15880;BME280;61999;51.514;14.614;2023-03-11T04:03:31;97793.09;;;-8.08;100.00
15880;BME280;61999;51.514;14.614;2023-03-11T04:06:09;97795.91;;;-8.36;100.00
15880;BME280;61999;51.514;14.614;2023-03-11T04:08:38;97808.34;;;-8.29;100.00
15880;BME280;61999;51.514;14.614;2023-03-11T04:11:07;97809.41;;;-7.90;100.00
15880;BME280;61999;51.514;14.614;2023-03-11T04:13:35;97810.66;;;-8.01;100.00
15880;BME280;61999;51.514;14.614;2023-03-11T04:16:06;97827.16;;;-8.08;100.00
15880;BME280;61999;51.514;14.614;2023-03-11T04:18:34;97827.56;;;-8.40;100.00
15880;BME280;61999;51.514;14.614;2023-03-11T04:21:05;97847.72;;;-8.80;100.00
15880;BME280;61999;51.514;14.614;2023-03-11T04:23:33;97853.41;;;-8.48;100.00
15880;BME280;61999;51.514;14.614;2023-03-11T04:26:03;97840.72;;;-8.28;100.00
15880;BME280;61999;51.514;14.614;2023-03-11T04:28:31;97856.28;;;-8.34;100.00
15880;BME280;61999;51.514;14.614;2023-03-11T04:30:59;97859.09;;;-8.42;100.00
15880;BME280;61999;51.514;14.614;2023-03-11T04:33:27;97879.09;;;-8.76;100.00
15880;BME280;61999;51.514;14.614;2023-03-11T04:35:56;97882.75;;;-8.36;100.00
15880;BME280;61999;51.514;14.614;2023-03-11T04:38:25;97898.53;;;-8.49;100.00
15880;BME280;61999;51.514;14.614;2023-03-11T04:40:52;97903.63;;;-8.25;100.00
15880;BME280;61999;51.514;14.614;2023-03-11T04:43:22;97931.34;;;-8.38;100.00
15880;BME280;61999;51.514;14.614;2023-03-11T04:45:50;97878.00;;;-8.69;100.00
15880;BME280;61999;51.514;14.614;2023-03-11T04:48:18;97929.47;;;-8.56;100.00
15880;BME280;61999;51.514;14.614;2023-03-11T04:50:46;97952.97;;;-8.72;100.00
15880;BME280;61999;51.514;14.614;2023-03-11T04:53:14;97962.41;;;-8.25;100.00
15880;BME280;61999;51.514;14.614;2023-03-11T04:55:42;97976.38;;;-8.59;100.00
15880;BME280;61999;51.514;14.614;2023-03-11T04:58:10;97987.16;;;-8.51;100.00
15880;BME280;61999;51.514;14.614;2023-03-11T05:00:39;97989.72;;;-8.27;100.00
15880;BME280;61999;51.514;14.614;2023-03-11T05:03:07;98009.56;;;-8.34;100.00
15880;BME280;61999;51.514;14.614;2023-03-11T05:05:36;97999.84;;;-8.24;100.00
15880;BME280;61999;51.514;14.614;2023-03-11T05:08:04;97999.72;;;-8.45;100.00
15880;BME280;61999;51.514;14.614;2023-03-11T05:10:32;98038.06;;;-7.98;100.00
15880;BME280;61999;51.514;14.614;2023-03-11T05:13:00;98029.16;;;-8.34;100.00
15880;BME280;61999;51.514;14.614;2023-03-11T05:15:28;98040.94;;;-8.55;100.00
15880;BME280;61999;51.514;14.614;2023-03-11T05:17:58;98064.78;;;-8.30;100.00
15880;BME280;61999;51.514;14.614;2023-03-11T05:20:26;98048.25;;;-8.45;100.00
15880;BME280;61999;51.514;14.614;2023-03-11T05:22:54;98065.50;;;-8.26;100.00
15880;BME280;61999;51.514;14.614;2023-03-11T05:25:22;98051.28;;;-8.10;100.00
15880;BME280;61999;51.514;14.614;2023-03-11T05:27:50;98060.97;;;-8.68;100.00
15880;BME280;61999;51.514;14.614;2023-03-11T05:30:18;98093.41;;;-8.98;100.00
15880;BME280;61999;51.514;14.614;2023-03-11T05:32:46;98101.66;;;-8.37;100.00
15880;BME280;61999;51.514;14.614;2023-03-11T05:35:16;98100.78;;;-8.37;100.00
15880;BME280;61999;51.514;14.614;2023-03-11T05:37:44;98112.75;;;-8.13;100.00
15880;BME280;61999;51.514;14.614;2023-03-11T05:40:16;98105.63;;;-8.28;100.00
15880;BME280;61999;51.514;14.614;2023-03-11T05:42:44;98095.66;;;-8.36;100.00
15880;BME280;61999;51.514;14.614;2023-03-11T05:45:13;98102.63;;;-8.41;100.00
15880;BME280;61999;51.514;14.614;2023-03-11T05:47:41;98135.91;;;-8.17;100.00
15880;BME280;61999;51.514;14.614;2023-03-11T05:50:11;98154.03;;;-8.77;100.00
15880;BME280;61999;51.514;14.614;2023-03-11T05:52:40;98151.78;;;-8.34;100.00
15880;BME280;61999;51.514;14.614;2023-03-11T05:55:09;98137.78;;;-7.98;100.00
15880;BME280;61999;51.514;14.614;2023-03-11T05:57:38;98180.91;;;-7.88;100.00
15880;BME280;61999;51.514;14.614;2023-03-11T06:00:08;98180.09;;;-8.14;100.00
15880;BME280;61999;51.514;14.614;2023-03-11T06:02:39;98184.84;;;-8.28;100.00
15880;BME280;61999;51.514;14.614;2023-03-11T06:05:08;98214.88;;;-8.10;100.00
15880;BME280;61999;51.514;14.614;2023-03-11T06:07:40;98206.16;;;-8.56;100.00
15880;BME280;61999;51.514;14.614;2023-03-11T06:10:10;98212.97;;;-8.30;100.00
15880;BME280;61999;51.514;14.614;2023-03-11T06:12:38;98233.31;;;-8.81;100.00
15880;BME280;61999;51.514;14.614;2023-03-11T06:15:08;98205.25;;;-8.55;100.00
15880;BME280;61999;51.514;14.614;2023-03-11T06:17:36;98203.88;;;-8.38;100.00
15880;BME280;61999;51.514;14.614;2023-03-11T06:20:05;98251.91;;;-8.78;100.00
15880;BME280;61999;51.514;14.614;2023-03-11T06:22:34;98243.03;;;-8.38;100.00
15880;BME280;61999;51.514;14.614;2023-03-11T06:25:08;98258.66;;;-8.47;100.00
15880;BME280;61999;51.514;14.614;2023-03-11T06:27:36;98271.03;;;-8.33;100.00
15880;BME280;61999;51.514;14.614;2023-03-11T06:30:06;98287.38;;;-8.39;100.00
15880;BME280;61999;51.514;14.614;2023-03-11T06:32:34;98275.81;;;-8.80;100.00
15880;BME280;61999;51.514;14.614;2023-03-11T06:35:03;98306.97;;;-8.69;100.00
15880;BME280;61999;51.514;14.614;2023-03-11T06:37:34;98309.75;;;-8.19;100.00
15880;BME280;61999;51.514;14.614;2023-03-11T06:40:03;98296.56;;;-8.05;100.00
15880;BME280;61999;51.514;14.614;2023-03-11T06:42:34;98324.03;;;-7.85;100.00
15880;BME280;61999;51.514;14.614;2023-03-11T06:45:03;98310.47;;;-7.87;100.00
15880;BME280;61999;51.514;14.614;2023-03-11T06:47:33;98345.19;;;-7.54;100.00
15880;BME280;61999;51.514;14.614;2023-03-11T06:50:01;98358.03;;;-7.30;100.00
15880;BME280;61999;51.514;14.614;2023-03-11T06:52:32;98374.50;;;-7.90;100.00
15880;BME280;61999;51.514;14.614;2023-03-11T06:55:00;98370.72;;;-8.07;100.00
15880;BME280;61999;51.514;14.614;2023-03-11T06:57:29;98387.16;;;-7.34;100.00
15880;BME280;61999;51.514;14.614;2023-03-11T07:00:00;98395.38;;;-8.06;100.00
15880;BME280;61999;51.514;14.614;2023-03-11T07:02:30;98397.50;;;-7.90;100.00
15880;BME280;61999;51.514;14.614;2023-03-11T07:04:58;98413.78;;;-7.93;100.00
15880;BME280;61999;51.514;14.614;2023-03-11T07:07:26;98405.91;;;-7.60;100.00
15880;BME280;61999;51.514;14.614;2023-03-11T07:09:55;98424.09;;;-7.41;100.00
15880;BME280;61999;51.514;14.614;2023-03-11T07:12:23;98426.19;;;-7.54;100.00
15880;BME280;61999;51.514;14.614;2023-03-11T07:14:54;98436.72;;;-7.91;100.00
15880;BME280;61999;51.514;14.614;2023-03-11T07:17:24;98453.09;;;-7.69;100.00
15880;BME280;61999;51.514;14.614;2023-03-11T07:19:53;98457.69;;;-7.80;100.00
15880;BME280;61999;51.514;14.614;2023-03-11T07:22:21;98458.31;;;-7.72;100.00
15880;BME280;61999;51.514;14.614;2023-03-11T07:24:49;98472.22;;;-7.26;100.00
15880;BME280;61999;51.514;14.614;2023-03-11T07:27:17;98475.41;;;-7.46;100.00
15880;BME280;61999;51.514;14.614;2023-03-11T07:29:45;98463.13;;;-7.63;100.00
15880;BME280;61999;51.514;14.614;2023-03-11T07:32:13;98488.78;;;-7.10;100.00
15880;BME280;61999;51.514;14.614;2023-03-11T07:34:43;98491.66;;;-7.75;100.00
15880;BME280;61999;51.514;14.614;2023-03-11T07:37:11;98487.34;;;-7.73;100.00
15880;BME280;61999;51.514;14.614;2023-03-11T07:39:40;98500.66;;;-7.34;100.00
15880;BME280;61999;51.514;14.614;2023-03-11T07:42:08;98504.63;;;-6.98;100.00
15880;BME280;61999;51.514;14.614;2023-03-11T07:44:36;98513.94;;;-7.50;100.00
15880;BME280;61999;51.514;14.614;2023-03-11T07:47:05;98533.38;;;-7.73;100.00
15880;BME280;61999;51.514;14.614;2023-03-11T07:49:32;98537.00;;;-8.11;100.00
15880;BME280;61999;51.514;14.614;2023-03-11T07:52:03;98540.06;;;-7.99;100.00
15880;BME280;61999;51.514;14.614;2023-03-11T07:54:31;98541.22;;;-7.49;100.00
15880;BME280;61999;51.514;14.614;2023-03-11T07:56:59;98550.00;;;-7.30;100.00
15880;BME280;61999;51.514;14.614;2023-03-11T07:59:29;98562.28;;;-7.41;100.00
15880;BME280;61999;51.514;14.614;2023-03-11T08:01:57;98556.25;;;-7.98;100.00
15880;BME280;61999;51.514;14.614;2023-03-11T08:04:25;98571.25;;;-7.56;100.00
15880;BME280;61999;51.514;14.614;2023-03-11T08:06:53;98589.31;;;-7.92;100.00
15880;BME280;61999;51.514;14.614;2023-03-11T08:09:22;98583.88;;;-8.11;100.00
15880;BME280;61999;51.514;14.614;2023-03-11T08:11:50;98607.16;;;-8.22;100.00
15880;BME280;61999;51.514;14.614;2023-03-11T08:14:18;98605.75;;;-8.01;100.00
15880;BME280;61999;51.514;14.614;2023-03-11T08:16:47;98605.81;;;-8.02;100.00
15880;BME280;61999;51.514;14.614;2023-03-11T08:19:15;98611.28;;;-7.85;100.00
15880;BME280;61999;51.514;14.614;2023-03-11T08:21:43;98623.63;;;-7.38;100.00
15880;BME280;61999;51.514;14.614;2023-03-11T08:24:13;98626.28;;;-7.72;100.00
15880;BME280;61999;51.514;14.614;2023-03-11T08:26:42;98634.50;;;-7.02;100.00
15880;BME280;61999;51.514;14.614;2023-03-11T08:29:10;98642.34;;;-6.80;100.00
15880;BME280;61999;51.514;14.614;2023-03-11T08:31:39;98646.09;;;-7.79;100.00
15880;BME280;61999;51.514;14.614;2023-03-11T08:34:09;98645.38;;;-7.84;100.00
15880;BME280;61999;51.514;14.614;2023-03-11T08:36:38;98668.13;;;-7.75;100.00
15880;BME280;61999;51.514;14.614;2023-03-11T08:39:06;98664.53;;;-7.37;100.00
15880;BME280;61999;51.514;14.614;2023-03-11T08:41:34;98657.03;;;-7.13;100.00
15880;BME280;61999;51.514;14.614;2023-03-11T08:44:04;98692.75;;;-7.40;100.00
15880;BME280;61999;51.514;14.614;2023-03-11T08:46:35;98686.84;;;-7.73;100.00
15880;BME280;61999;51.514;14.614;2023-03-11T08:49:05;98676.34;;;-7.62;100.00
15880;BME280;61999;51.514;14.614;2023-03-11T08:51:34;98680.91;;;-7.73;100.00
15880;BME280;61999;51.514;14.614;2023-03-11T08:54:03;98677.44;;;-7.71;100.00
15880;BME280;61999;51.514;14.614;2023-03-11T08:56:32;98707.69;;;-7.88;100.00
15880;BME280;61999;51.514;14.614;2023-03-11T08:59:01;98702.13;;;-7.70;100.00
15880;BME280;61999;51.514;14.614;2023-03-11T09:01:30;98710.56;;;-8.01;100.00
15880;BME280;61999;51.514;14.614;2023-03-11T09:03:59;98715.34;;;-7.87;100.00
15880;BME280;61999;51.514;14.614;2023-03-11T09:06:27;98707.03;;;-7.95;100.00
15880;BME280;61999;51.514;14.614;2023-03-11T09:08:57;98727.09;;;-8.14;100.00
15880;BME280;61999;51.514;14.614;2023-03-11T09:11:26;98725.69;;;-7.91;100.00
15880;BME280;61999;51.514;14.614;2023-03-11T09:13:54;98731.41;;;-7.49;100.00
15880;BME280;61999;51.514;14.614;2023-03-11T09:16:23;98743.81;;;-7.35;100.00
15880;BME280;61999;51.514;14.614;2023-03-11T09:18:53;98739.13;;;-7.50;100.00
15880;BME280;61999;51.514;14.614;2023-03-11T09:21:21;98759.69;;;-7.54;100.00
15880;BME280;61999;51.514;14.614;2023-03-11T09:23:49;98773.81;;;-7.73;100.00
15880;BME280;61999;51.514;14.614;2023-03-11T09:26:18;98771.88;;;-8.33;100.00
15880;BME280;61999;51.514;14.614;2023-03-11T09:28:46;98791.41;;;-7.95;100.00
15880;BME280;61999;51.514;14.614;2023-03-11T09:31:16;98783.69;;;-7.25;100.00
15880;BME280;61999;51.514;14.614;2023-03-11T09:33:47;98791.06;;;-7.81;100.00
15880;BME280;61999;51.514;14.614;2023-03-11T09:36:21;98803.72;;;-8.11;100.00
15880;BME280;61999;51.514;14.614;2023-03-11T09:38:49;98789.44;;;-7.49;100.00
15880;BME280;61999;51.514;14.614;2023-03-11T09:41:28;98790.72;;;-7.33;100.00
15880;BME280;61999;51.514;14.614;2023-03-11T09:44:13;98800.81;;;-7.97;98.91
15880;BME280;61999;51.514;14.614;2023-03-11T09:47:23;98814.84;;;-7.76;98.65
15880;BME280;61999;51.514;14.614;2023-03-11T09:50:12;98812.28;;;-7.43;98.69
15880;BME280;61999;51.514;14.614;2023-03-11T09:52:50;98826.06;;;-7.47;98.17
15880;BME280;61999;51.514;14.614;2023-03-11T09:55:36;98840.69;;;-7.53;96.38
15880;BME280;61999;51.514;14.614;2023-03-11T09:58:15;98826.22;;;-6.58;99.17
15880;BME280;61999;51.514;14.614;2023-03-11T10:00:45;98826.47;;;-7.30;95.56
15880;BME280;61999;51.514;14.614;2023-03-11T10:03:28;98843.56;;;-7.31;94.47
15880;BME280;61999;51.514;14.614;2023-03-11T10:06:11;98836.59;;;-6.94;96.42
15880;BME280;61999;51.514;14.614;2023-03-11T10:08:54;98838.75;;;-7.10;94.32
15880;BME280;61999;51.514;14.614;2023-03-11T10:11:50;98848.84;;;-7.06;92.14
15880;BME280;61999;51.514;14.614;2023-03-11T10:14:53;98853.75;;;-6.96;92.60
15880;BME280;61999;51.514;14.614;2023-03-11T10:17:55;98873.13;;;-7.19;92.25
15880;BME280;61999;51.514;14.614;2023-03-11T10:20:33;98865.38;;;-6.53;93.24
15880;BME280;61999;51.514;14.614;2023-03-11T10:23:19;98874.97;;;-6.30;92.05
15880;BME280;61999;51.514;14.614;2023-03-11T10:25:59;98870.59;;;-5.99;89.38
15880;BME280;61999;51.514;14.614;2023-03-11T10:28:34;98875.94;;;-5.52;90.97
15880;BME280;61999;51.514;14.614;2023-03-11T10:31:20;98884.06;;;-6.81;85.58
15880;BME280;61999;51.514;14.614;2023-03-11T10:33:54;98885.25;;;-6.62;88.75
15880;BME280;61999;51.514;14.614;2023-03-11T10:36:34;98900.47;;;-6.57;90.26
15880;BME280;61999;51.514;14.614;2023-03-11T10:39:08;98907.31;;;-6.89;87.91
15880;BME280;61999;51.514;14.614;2023-03-11T10:41:46;98896.53;;;-6.38;89.22
15880;BME280;61999;51.514;14.614;2023-03-11T10:44:24;98910.81;;;-5.99;88.66
15880;BME280;61999;51.514;14.614;2023-03-11T10:46:54;98917.88;;;-6.07;83.94
15880;BME280;61999;51.514;14.614;2023-03-11T10:49:23;98917.88;;;-6.37;83.29
15880;BME280;61999;51.514;14.614;2023-03-11T10:51:54;98919.09;;;-5.91;83.95
15880;BME280;61999;51.514;14.614;2023-03-11T10:54:31;98912.25;;;-5.36;85.12
15880;BME280;61999;51.514;14.614;2023-03-11T10:57:08;98933.09;;;-6.31;80.39
15880;BME280;61999;51.514;14.614;2023-03-11T10:59:48;98922.38;;;-5.86;83.22
15880;BME280;61999;51.514;14.614;2023-03-11T11:02:27;98925.44;;;-4.95;81.09
15880;BME280;61999;51.514;14.614;2023-03-11T11:05:25;98936.09;;;-4.81;78.21
15880;BME280;61999;51.514;14.614;2023-03-11T11:08:05;98935.66;;;-4.20;79.39
15880;BME280;61999;51.514;14.614;2023-03-11T11:10:34;98936.81;;;-3.15;76.45
15880;BME280;61999;51.514;14.614;2023-03-11T11:13:18;98931.97;;;-3.23;71.57
15880;BME280;61999;51.514;14.614;2023-03-11T11:16:02;98938.16;;;-2.66;74.98
15880;BME280;61999;51.514;14.614;2023-03-11T11:18:35;98941.69;;;-3.52;69.34
15880;BME280;61999;51.514;14.614;2023-03-11T11:21:14;98935.53;;;-4.40;77.58
15880;BME280;61999;51.514;14.614;2023-03-11T11:23:49;98945.66;;;-3.43;75.32
15880;BME280;61999;51.514;14.614;2023-03-11T11:26:23;98953.13;;;-2.53;79.75
15880;BME280;61999;51.514;14.614;2023-03-11T11:29:12;98944.50;;;-4.02;73.06
15880;BME280;61999;51.514;14.614;2023-03-11T11:31:42;98951.63;;;-4.59;75.30
15880;BME280;61999;51.514;14.614;2023-03-11T11:34:28;98964.22;;;-5.01;74.09
15880;BME280;61999;51.514;14.614;2023-03-11T11:36:59;98958.53;;;-4.59;75.61
15880;BME280;61999;51.514;14.614;2023-03-11T11:39:35;98961.16;;;-4.14;76.47
15880;BME280;61999;51.514;14.614;2023-03-11T11:42:10;98961.75;;;-4.54;74.81
15880;BME280;61999;51.514;14.614;2023-03-11T11:44:45;98972.38;;;-4.40;78.59
15880;BME280;61999;51.514;14.614;2023-03-11T11:47:18;98973.88;;;-4.83;75.99
15880;BME280;61999;51.514;14.614;2023-03-11T11:49:53;98973.97;;;-4.86;79.98
15880;BME280;61999;51.514;14.614;2023-03-11T11:52:26;98982.22;;;-5.85;77.74
15880;BME280;61999;51.514;14.614;2023-03-11T11:55:02;98971.13;;;-5.58;82.13
15880;BME280;61999;51.514;14.614;2023-03-11T11:57:31;98992.47;;;-5.28;78.49
15880;BME280;61999;51.514;14.614;2023-03-11T12:00:01;98986.75;;;-5.65;80.25
15880;BME280;61999;51.514;14.614;2023-03-11T12:02:45;98997.69;;;-5.87;78.98
15880;BME280;61999;51.514;14.614;2023-03-11T12:05:27;98985.41;;;-6.36;80.77
15880;BME280;61999;51.514;14.614;2023-03-11T12:08:08;98991.91;;;-5.65;84.32
15880;BME280;61999;51.514;14.614;2023-03-11T12:10:44;98991.03;;;-5.10;83.20
15880;BME280;61999;51.514;14.614;2023-03-11T12:13:41;99000.50;;;-5.38;84.04
15880;BME280;61999;51.514;14.614;2023-03-11T12:16:24;99001.81;;;-6.44;82.08
15880;BME280;61999;51.514;14.614;2023-03-11T12:19:01;99007.59;;;-5.18;84.37
15880;BME280;61999;51.514;14.614;2023-03-11T12:21:53;99018.97;;;-6.14;81.59
15880;BME280;61999;51.514;14.614;2023-03-11T12:25:09;99007.75;;;-6.10;83.89
15880;BME280;61999;51.514;14.614;2023-03-11T12:27:46;99005.34;;;-5.29;84.17
15880;BME280;61999;51.514;14.614;2023-03-11T12:30:22;99002.81;;;-5.87;78.32
15880;BME280;61999;51.514;14.614;2023-03-11T12:32:58;99003.25;;;-5.16;80.14
15880;BME280;61999;51.514;14.614;2023-03-11T12:35:30;99000.03;;;-5.51;77.33
15880;BME280;61999;51.514;14.614;2023-03-11T12:38:16;99000.44;;;-4.32;79.02
15880;BME280;61999;51.514;14.614;2023-03-11T12:40:59;99001.50;;;-4.14;73.89
15880;BME280;61999;51.514;14.614;2023-03-11T12:43:59;98977.72;;;-4.44;69.91
15880;BME280;61999;51.514;14.614;2023-03-11T12:47:01;98994.38;;;-3.82;70.43
15880;BME280;61999;51.514;14.614;2023-03-11T12:49:33;99003.19;;;-2.78;67.61
15880;BME280;61999;51.514;14.614;2023-03-11T12:52:15;99019.25;;;-3.36;65.56
15880;BME280;61999;51.514;14.614;2023-03-11T12:54:46;99007.94;;;-4.51;66.67
15880;BME280;61999;51.514;14.614;2023-03-11T12:57:33;99015.16;;;-4.12;69.34
15880;BME280;61999;51.514;14.614;2023-03-11T13:00:20;99024.59;;;-4.36;68.23
15880;BME280;61999;51.514;14.614;2023-03-11T13:03:27;99036.03;;;-4.45;72.64
15880;BME280;61999;51.514;14.614;2023-03-11T13:06:23;99047.78;;;-4.38;70.30
15880;BME280;61999;51.514;14.614;2023-03-11T13:08:56;99057.56;;;-5.00;71.51